Time;durP1;ratioP1;P1;durP2;ratioP2;P2;SDS_P1;SDS_P2;PMS_P1;PMS_P2;Temp;Humidity;BMP_temperature;BMP_pressure;BME280_temperature;BME280_humidity;BME280_pressure;Samples;Min_cycle;Max_cycle;Signal;HPM_P1;HPM_P2
2022/04/20 00:01:46;;;;;;;;;23.75;23.75;;;;;;;;5099152;27;51104;-59
2022/04/20 00:04:11;;;;;;;;;30.00;25.25;;;;;;;;5078417;27;52336;-59
2022/04/20 00:06:37;;;;;;;;;29.25;25.75;;;;;;;;5101577;27;52359;-59
2022/04/20 00:09:02;;;;;;;;;26.50;24.50;;;;;;;;5103730;27;51337;-59
2022/04/20 00:11:27;;;;;;;;;21.25;20.00;;;;;;;;5101117;27;51454;-59
2022/04/20 00:13:52;;;;;;;;;29.25;27.75;;;;;;;;5103140;27;51318;-59
2022/04/20 00:16:18;;;;;;;;;33.00;29.00;;;;;;;;5099230;27;51157;-59
2022/04/20 00:18:43;;;;;;;;;34.00;32.00;;;;;;;;5108181;27;51149;-59
2022/04/20 00:21:08;;;;;;;;;36.75;33.75;;;;;;;;5104608;27;51065;-60
2022/04/20 00:23:33;;;;;;;;;38.25;34.50;;;;;;;;5103260;27;51242;-60
2022/04/20 00:25:59;;;;;;;;;36.00;33.00;;;;;;;;5102584;27;51234;-58
2022/04/20 00:28:24;;;;;;;;;34.00;31.50;;;;;;;;5104035;27;51165;-59
2022/04/20 00:30:49;;;;;;;;;33.00;31.75;;;;;;;;5098178;27;51605;-59
2022/04/20 00:33:14;;;;;;;;;35.00;32.75;;;;;;;;5101413;27;52223;-59
2022/04/20 00:35:41;;;;;;;;;31.00;28.50;;;;;;;;5095437;27;50973;-59
2022/04/20 00:38:07;;;;;;;;;31.75;30.00;;;;;;;;5102481;27;51194;-58
2022/04/20 00:40:32;;;;;;;;;30.00;28.75;;;;;;;;5095584;27;51004;-59
2022/04/20 00:42:57;;;;;;;;;32.00;29.25;;;;;;;;5084011;27;52747;-58
2022/04/20 00:45:23;;;;;;;;;33.00;32.25;;;;;;;;5099249;27;51092;-59
2022/04/20 00:47:49;;;;;;;;;31.25;30.75;;;;;;;;5104585;27;50952;-58
2022/04/20 00:50:14;;;;;;;;;31.25;29.25;;;;;;;;5106054;27;51283;-58
2022/04/20 00:52:40;;;;;;;;;36.25;31.50;;;;;;;;5105048;27;51156;-59
2022/04/20 00:55:05;;;;;;;;;32.75;31.25;;;;;;;;5100019;27;50951;-58
2022/04/20 00:57:31;;;;;;;;;38.50;33.00;;;;;;;;5101115;27;51585;-58
2022/04/20 00:59:57;;;;;;;;;35.50;32.25;;;;;;;;5103314;27;51097;-59
2022/04/20 01:02:22;;;;;;;;;31.25;30.50;;;;;;;;5106585;27;52823;-58
2022/04/20 01:04:48;;;;;;;;;42.00;35.50;;;;;;;;5100762;27;51952;-58
2022/04/20 01:07:13;;;;;;;;;37.75;33.00;;;;;;;;5100648;27;51184;-59
2022/04/20 01:09:39;;;;;;;;;37.75;35.00;;;;;;;;5073226;27;51394;-59
2022/04/20 01:12:05;;;;;;;;;40.50;34.00;;;;;;;;5103075;27;51484;-59
2022/04/20 01:14:30;;;;;;;;;38.75;35.75;;;;;;;;5099897;27;52142;-59
2022/04/20 01:16:55;;;;;;;;;32.25;27.75;;;;;;;;5102848;27;51364;-59
2022/04/20 01:19:20;;;;;;;;;39.50;35.00;;;;;;;;5106140;27;51905;-59
2022/04/20 01:21:46;;;;;;;;;32.50;30.50;;;;;;;;5100133;27;52615;-60
2022/04/20 01:24:11;;;;;;;;;39.50;34.25;;;;;;;;5104440;27;50943;-61
2022/04/20 01:26:38;;;;;;;;;43.50;36.00;;;;;;;;5099806;27;51351;-59
2022/04/20 01:29:04;;;;;;;;;34.25;30.50;;;;;;;;5097568;27;51321;-59
2022/04/20 01:31:30;;;;;;;;;38.25;34.00;;;;;;;;5111431;27;51150;-59
2022/04/20 01:33:55;;;;;;;;;40.25;35.50;;;;;;;;5107560;27;51203;-59
2022/04/20 01:36:20;;;;;;;;;46.50;38.75;;;;;;;;5100779;27;51062;-58
2022/04/20 01:38:46;;;;;;;;;43.25;38.75;;;;;;;;5094950;27;52255;-58
2022/04/20 01:41:11;;;;;;;;;45.75;37.50;;;;;;;;5082711;27;53021;-59
2022/04/20 01:43:36;;;;;;;;;50.50;40.25;;;;;;;;5098359;27;51102;-58
2022/04/20 01:46:01;;;;;;;;;44.00;39.25;;;;;;;;5094171;27;51208;-58
2022/04/20 01:48:26;;;;;;;;;37.00;33.00;;;;;;;;5104488;27;51379;-58
2022/04/20 01:53:36;;;;;;;;;43.25;36.75;;;;;;;;5111330;27;51061;-58
2022/04/20 01:56:03;;;;;;;;;42.00;36.50;;;;;;;;5096360;27;51420;-58
2022/04/20 01:58:28;;;;;;;;;47.25;39.75;;;;;;;;5104488;27;51440;-58
2022/04/20 02:00:54;;;;;;;;;39.75;36.75;;;;;;;;5106728;27;52241;-58
2022/04/20 02:03:19;;;;;;;;;48.00;37.75;;;;;;;;5108448;27;51206;-58
2022/04/20 02:05:44;;;;;;;;;45.75;38.25;;;;;;;;5112170;27;51552;-58
2022/04/20 02:08:10;;;;;;;;;42.50;38.25;;;;;;;;5104621;27;50874;-59
2022/04/20 02:10:35;;;;;;;;;42.25;35.50;;;;;;;;5097957;27;51627;-58
2022/04/20 02:13:00;;;;;;;;;38.00;35.00;;;;;;;;5110988;27;51020;-58
2022/04/20 02:15:26;;;;;;;;;43.75;37.75;;;;;;;;5104669;27;51061;-59
2022/04/20 02:17:51;;;;;;;;;45.50;37.75;;;;;;;;5112313;27;51232;-58
2022/04/20 02:20:17;;;;;;;;;45.50;38.50;;;;;;;;5099187;27;52849;-58
2022/04/20 02:22:42;;;;;;;;;43.50;37.00;;;;;;;;5100367;27;51184;-59
2022/04/20 02:25:07;;;;;;;;;48.00;41.00;;;;;;;;5106821;27;51370;-59
2022/04/20 02:27:33;;;;;;;;;41.75;37.50;;;;;;;;5104956;27;51376;-60
2022/04/20 02:29:58;;;;;;;;;43.50;38.50;;;;;;;;5099925;27;51790;-60
2022/04/20 02:32:23;;;;;;;;;47.75;39.25;;;;;;;;5102012;27;51079;-60
2022/04/20 02:34:49;;;;;;;;;47.25;40.00;;;;;;;;5105692;27;51341;-60
2022/04/20 02:37:14;;;;;;;;;40.75;36.50;;;;;;;;5095208;27;51274;-60
2022/04/20 02:39:39;;;;;;;;;48.00;41.00;;;;;;;;5105397;27;51169;-59
2022/04/20 02:42:05;;;;;;;;;53.75;45.00;;;;;;;;5088724;27;51288;-59
2022/04/20 02:44:31;;;;;;;;;54.25;43.25;;;;;;;;5090737;27;51295;-60
2022/04/20 02:46:57;;;;;;;;;53.50;41.50;;;;;;;;5106501;27;51248;-60
2022/04/20 02:49:22;;;;;;;;;57.50;46.25;;;;;;;;5102636;27;51720;-60
2022/04/20 02:51:47;;;;;;;;;53.75;44.75;;;;;;;;5108001;27;51200;-59
2022/04/20 02:54:12;;;;;;;;;55.50;44.25;;;;;;;;5105751;27;51093;-59
2022/04/20 02:56:38;;;;;;;;;52.75;43.75;;;;;;;;5101174;27;52219;-59
2022/04/20 02:59:03;;;;;;;;;59.50;44.75;;;;;;;;5086297;27;52761;-59
2022/04/20 03:01:30;;;;;;;;;55.00;43.50;;;;;;;;5101071;27;51215;-59
2022/04/20 03:03:56;;;;;;;;;51.25;42.50;;;;;;;;5104187;27;50894;-59
2022/04/20 03:06:21;;;;;;;;;52.25;43.00;;;;;;;;5095060;27;51414;-58
2022/04/20 03:08:47;;;;;;;;;52.75;43.75;;;;;;;;5110622;27;51193;-59
2022/04/20 03:11:12;;;;;;;;;53.00;44.25;;;;;;;;5100965;27;51598;-59
2022/04/20 03:13:38;;;;;;;;;58.25;47.75;;;;;;;;5107709;27;51215;-59
2022/04/20 03:16:03;;;;;;;;;54.25;45.25;;;;;;;;5095387;27;51156;-59
2022/04/20 03:18:32;;;;;;;;;57.67;46.00;;;;;;;;5098607;27;51961;-59
2022/04/20 03:20:58;;;;;;;;;54.75;45.25;;;;;;;;5099308;27;51120;-59
2022/04/20 03:23:23;;;;;;;;;53.50;44.00;;;;;;;;5103562;27;51532;-59
2022/04/20 03:25:48;;;;;;;;;56.25;45.00;;;;;;;;5079492;27;51850;-59
2022/04/20 03:28:13;;;;;;;;;56.50;46.00;;;;;;;;5094877;27;52359;-57
2022/04/20 03:30:39;;;;;;;;;53.50;45.25;;;;;;;;5101431;27;51133;-58
2022/04/20 03:33:05;;;;;;;;;53.00;44.00;;;;;;;;5103857;27;51460;-58
2022/04/20 03:35:30;;;;;;;;;53.25;45.00;;;;;;;;5100176;27;51081;-58
2022/04/20 03:37:56;;;;;;;;;58.25;45.50;;;;;;;;5087512;27;52498;-58
2022/04/20 03:40:21;;;;;;;;;57.00;46.00;;;;;;;;5101044;27;51284;-58
2022/04/20 03:42:47;;;;;;;;;55.50;46.00;;;;;;;;5100090;27;51008;-58
2022/04/20 03:45:12;;;;;;;;;54.25;44.00;;;;;;;;5102352;27;51131;-59
2022/04/20 03:47:38;;;;;;;;;59.00;48.00;;;;;;;;5103801;27;51393;-59
2022/04/20 03:50:03;;;;;;;;;57.00;45.50;;;;;;;;5096702;27;51135;-59
2022/04/20 03:52:28;;;;;;;;;58.25;47.00;;;;;;;;5103692;27;51152;-59
2022/04/20 03:54:54;;;;;;;;;59.50;46.75;;;;;;;;5103697;27;51206;-59
2022/04/20 03:57:19;;;;;;;;;56.50;47.00;;;;;;;;5105993;27;51908;-59
2022/04/20 03:59:44;;;;;;;;;58.75;48.50;;;;;;;;5098775;27;51248;-58
2022/04/20 04:02:09;;;;;;;;;56.75;46.00;;;;;;;;5104985;27;51145;-59
2022/04/20 04:04:35;;;;;;;;;60.00;50.00;;;;;;;;5104495;27;51105;-58
2022/04/20 04:07:00;;;;;;;;;55.25;46.75;;;;;;;;5098477;27;52815;-59
2022/04/20 04:09:25;;;;;;;;;55.25;46.25;;;;;;;;5102852;27;51255;-59
2022/04/20 04:11:51;;;;;;;;;55.75;45.75;;;;;;;;5096298;27;51220;-60
2022/04/20 04:14:17;;;;;;;;;58.25;47.00;;;;;;;;5107311;27;50970;-59
2022/04/20 04:16:42;;;;;;;;;56.50;46.00;;;;;;;;5096963;27;52887;-60
2022/04/20 04:19:08;;;;;;;;;56.25;47.25;;;;;;;;5111290;27;51240;-58
2022/04/20 04:21:37;;;;;;;;;55.75;46.50;;;;;;;;5084010;27;51343;-58
2022/04/20 04:24:03;;;;;;;;;58.00;46.50;;;;;;;;5080802;27;51328;-60
2022/04/20 04:26:30;;;;;;;;;55.25;46.00;;;;;;;;5079658;27;52589;-59
2022/04/20 04:28:55;;;;;;;;;61.25;49.50;;;;;;;;5084831;27;51394;-59
2022/04/20 04:31:20;;;;;;;;;56.25;46.00;;;;;;;;5082320;27;51217;-59
2022/04/20 04:33:45;;;;;;;;;59.75;48.25;;;;;;;;5077928;27;52571;-59
2022/04/20 04:36:11;;;;;;;;;63.00;50.25;;;;;;;;5077848;27;52072;-59
2022/04/20 04:38:36;;;;;;;;;60.75;46.50;;;;;;;;5081198;27;51444;-59
2022/04/20 04:41:01;;;;;;;;;58.75;47.75;;;;;;;;5081353;27;51202;-59
2022/04/20 04:43:26;;;;;;;;;56.00;46.75;;;;;;;;5068478;27;51548;-59
2022/04/20 04:48:36;;;;;;;;;56.50;46.50;;;;;;;;5083758;27;52526;-58
2022/04/20 04:51:01;;;;;;;;;58.75;47.25;;;;;;;;5080120;27;51515;-59
2022/04/20 04:53:26;;;;;;;;;59.50;49.75;;;;;;;;5079311;27;51421;-59
2022/04/20 04:55:51;;;;;;;;;56.00;46.00;;;;;;;;5077952;27;53659;-59
2022/04/20 04:58:17;;;;;;;;;59.50;48.00;;;;;;;;5080565;27;51856;-59
2022/04/20 05:00:42;;;;;;;;;59.75;50.00;;;;;;;;5079919;27;51939;-59
2022/04/20 05:03:08;;;;;;;;;57.00;46.25;;;;;;;;5079913;27;53947;-59
2022/04/20 05:05:33;;;;;;;;;57.50;46.75;;;;;;;;5079078;27;53095;-59
2022/04/20 05:07:58;;;;;;;;;62.75;50.25;;;;;;;;5064977;27;52507;-58
2022/04/20 05:10:23;;;;;;;;;62.75;49.00;;;;;;;;5077679;27;51745;-59
2022/04/20 05:12:49;;;;;;;;;61.25;49.25;;;;;;;;5079173;27;53533;-58
2022/04/20 05:15:14;;;;;;;;;64.50;51.50;;;;;;;;5082334;27;53479;-59
2022/04/20 05:17:39;;;;;;;;;64.75;51.50;;;;;;;;5082124;27;51633;-59
2022/04/20 05:20:05;;;;;;;;;57.00;48.25;;;;;;;;5077854;27;51518;-60
2022/04/20 05:22:30;;;;;;;;;65.50;51.50;;;;;;;;5079027;27;51332;-59
2022/04/20 05:24:55;;;;;;;;;58.50;46.50;;;;;;;;5079800;27;51851;-60
2022/04/20 05:27:21;;;;;;;;;60.50;50.00;;;;;;;;5080208;27;52565;-60
2022/04/20 05:29:46;;;;;;;;;63.00;50.75;;;;;;;;5080429;27;53023;-60
2022/04/20 05:32:11;;;;;;;;;62.75;49.00;;;;;;;;5078259;27;51155;-58
2022/04/20 05:34:36;;;;;;;;;59.75;49.25;;;;;;;;5079311;27;53435;-58
2022/04/20 05:42:29;;;;;;;;;60.50;49.25;;;;;;;;5081734;27;51560;-59
2022/04/20 05:44:55;;;;;;;;;64.00;49.00;;;;;;;;5068249;27;53748;-61
2022/04/20 05:47:20;;;;;;;;;58.50;48.25;;;;;;;;5082230;27;51238;-59
2022/04/20 05:49:45;;;;;;;;;61.25;48.50;;;;;;;;5081972;27;51355;-59
2022/04/20 05:52:11;;;;;;;;;61.25;49.50;;;;;;;;5081918;27;51132;-59
2022/04/20 05:54:36;;;;;;;;;63.00;50.50;;;;;;;;5084384;27;51816;-59
2022/04/20 05:57:01;;;;;;;;;60.50;48.75;;;;;;;;5080983;27;51411;-59
2022/04/20 05:59:27;;;;;;;;;59.75;48.50;;;;;;;;5069368;27;51876;-59
2022/04/20 06:01:53;;;;;;;;;63.00;49.25;;;;;;;;5083319;27;51804;-59
2022/04/20 06:04:18;;;;;;;;;57.25;46.50;;;;;;;;5071530;27;52460;-58
2022/04/20 06:06:43;;;;;;;;;59.00;48.00;;;;;;;;5085753;27;51844;-59
2022/04/20 06:09:08;;;;;;;;;60.50;49.00;;;;;;;;5084644;27;51391;-58
2022/04/20 06:11:34;;;;;;;;;61.50;50.75;;;;;;;;5085586;27;52406;-59
2022/04/20 06:13:59;;;;;;;;;62.75;48.00;;;;;;;;5085966;27;52695;-59
2022/04/20 06:16:24;;;;;;;;;61.00;48.25;;;;;;;;5087438;27;53278;-59
2022/04/20 06:18:50;;;;;;;;;62.25;48.00;;;;;;;;5086480;27;51617;-59
2022/04/20 06:21:15;;;;;;;;;61.25;49.00;;;;;;;;5081409;27;51944;-60
2022/04/20 06:23:40;;;;;;;;;51.00;42.75;;;;;;;;5085591;27;53259;-59
2022/04/20 06:26:06;;;;;;;;;57.00;47.50;;;;;;;;5084492;27;51431;-57
2022/04/20 06:28:31;;;;;;;;;59.00;48.00;;;;;;;;5082906;27;51376;-58
2022/04/20 06:30:56;;;;;;;;;57.00;47.00;;;;;;;;5079456;27;52307;-60
2022/04/20 06:33:21;;;;;;;;;62.00;49.25;;;;;;;;5084147;27;51956;-58
2022/04/20 06:35:47;;;;;;;;;59.00;48.00;;;;;;;;5071026;27;51567;-61
2022/04/20 06:38:12;;;;;;;;;60.00;49.00;;;;;;;;5069245;27;52388;-60
2022/04/20 06:40:37;;;;;;;;;59.75;48.00;;;;;;;;5084425;27;51243;-58
2022/04/20 06:43:03;;;;;;;;;59.75;47.00;;;;;;;;5086542;27;51343;-59
2022/04/20 06:45:28;;;;;;;;;59.75;47.00;;;;;;;;5083309;27;53090;-59
2022/04/20 06:47:57;;;;;;;;;58.50;47.50;;;;;;;;5085559;27;51384;-58
2022/04/20 06:50:22;;;;;;;;;59.00;48.25;;;;;;;;5085659;27;51403;-57
2022/04/20 06:58:39;;;;;;;;;46.75;39.00;;;;;;;;5085313;27;51385;-59
2022/04/20 07:01:06;;;;;;;;;55.75;46.00;;;;;;;;5072446;27;51875;-59
2022/04/20 07:03:31;;;;;;;;;58.25;46.25;;;;;;;;5084445;27;51325;-59
2022/04/20 07:05:57;;;;;;;;;56.25;45.25;;;;;;;;5084198;27;51378;-59
2022/04/20 07:08:22;;;;;;;;;54.50;45.00;;;;;;;;5084772;27;51291;-59
2022/04/20 07:10:48;;;;;;;;;56.75;45.25;;;;;;;;5083215;27;51504;-58
2022/04/20 07:13:13;;;;;;;;;55.75;45.50;;;;;;;;5084446;27;52651;-59
2022/04/20 07:15:38;;;;;;;;;56.00;45.75;;;;;;;;5085195;27;51378;-59
2022/04/20 07:18:05;;;;;;;;;57.50;46.25;;;;;;;;5086081;27;51197;-59
2022/04/20 07:20:30;;;;;;;;;54.25;45.00;;;;;;;;5085470;27;51336;-59
2022/04/20 07:22:55;;;;;;;;;56.75;45.00;;;;;;;;5083285;27;52730;-60
2022/04/20 07:25:21;;;;;;;;;51.50;42.25;;;;;;;;5085620;27;51189;-60
2022/04/20 07:27:48;;;;;;;;;59.25;48.25;;;;;;;;5085548;27;53130;-60
2022/04/20 07:30:13;;;;;;;;;53.00;44.75;;;;;;;;5085237;27;51791;-59
2022/04/20 07:32:39;;;;;;;;;47.75;40.50;;;;;;;;5084126;27;51627;-59
2022/04/20 07:35:04;;;;;;;;;51.50;41.75;;;;;;;;5085568;27;51280;-59
2022/04/20 07:37:31;;;;;;;;;47.75;39.75;;;;;;;;5084463;27;51859;-59
2022/04/20 07:39:56;;;;;;;;;50.50;42.50;;;;;;;;5068200;27;51794;-60
2022/04/20 07:42:21;;;;;;;;;47.50;40.50;;;;;;;;5084982;27;51311;-59
2022/04/20 07:44:46;;;;;;;;;50.25;41.50;;;;;;;;5085151;27;51315;-58
2022/04/20 07:47:12;;;;;;;;;47.25;39.75;;;;;;;;5082703;27;51252;-59
2022/04/20 07:52:21;;;;;;;;;47.75;39.25;;;;;;;;5084069;27;51361;-59
2022/04/20 07:54:46;;;;;;;;;48.50;40.50;;;;;;;;5083698;27;52554;-59
2022/04/20 07:57:14;;;;;;;;;51.00;41.25;;;;;;;;5085774;27;51234;-59
2022/04/20 07:59:39;;;;;;;;;44.25;36.25;;;;;;;;5068459;27;52553;-58
2022/04/20 08:02:05;;;;;;;;;44.00;37.50;;;;;;;;5083847;27;51335;-58
2022/04/20 08:04:30;;;;;;;;;44.75;37.00;;;;;;;;5084755;27;51252;-59
2022/04/20 08:06:55;;;;;;;;;45.25;37.00;;;;;;;;5084607;27;53478;-59
2022/04/20 08:09:20;;;;;;;;;38.00;34.50;;;;;;;;5085095;27;51681;-58
2022/04/20 08:11:45;;;;;;;;;39.50;34.50;;;;;;;;5084017;27;54030;-59
2022/04/20 08:14:11;;;;;;;;;36.75;33.00;;;;;;;;5083489;27;51450;-58
2022/04/20 08:16:36;;;;;;;;;36.25;33.25;;;;;;;;5084966;27;51505;-56
2022/04/20 08:19:02;;;;;;;;;30.75;30.25;;;;;;;;5084498;27;51243;-56
2022/04/20 08:21:27;;;;;;;;;31.75;30.50;;;;;;;;5084645;27;51796;-59
2022/04/20 08:23:52;;;;;;;;;37.25;32.00;;;;;;;;5083632;27;51504;-58
2022/04/20 08:26:17;;;;;;;;;30.50;30.00;;;;;;;;5084426;27;51173;-59
2022/04/20 08:28:43;;;;;;;;;29.75;28.50;;;;;;;;5084576;27;51205;-59
2022/04/20 08:31:08;;;;;;;;;36.00;32.50;;;;;;;;5084722;27;52883;-59
2022/04/20 08:33:33;;;;;;;;;29.50;28.00;;;;;;;;5084167;27;51424;-59
2022/04/20 08:35:59;;;;;;;;;34.25;31.00;;;;;;;;5084588;27;51903;-59
2022/04/20 08:38:24;;;;;;;;;36.50;33.00;;;;;;;;5084091;27;51689;-58
2022/04/20 08:40:52;;;;;;;;;32.25;28.75;;;;;;;;5083375;27;51873;-59
2022/04/20 08:43:19;;;;;;;;;29.75;29.50;;;;;;;;5083492;27;51878;-59
2022/04/20 08:45:46;;;;;;;;;32.50;30.75;;;;;;;;5084178;27;51835;-59
2022/04/20 08:48:11;;;;;;;;;31.00;30.00;;;;;;;;5082821;27;53069;-59
2022/04/20 08:50:36;;;;;;;;;36.50;32.25;;;;;;;;5083480;27;51693;-60
2022/04/20 08:53:02;;;;;;;;;30.00;28.75;;;;;;;;5083069;27;51253;-59
2022/04/20 08:55:28;;;;;;;;;36.75;33.25;;;;;;;;5083074;27;51400;-58
2022/04/20 08:57:54;;;;;;;;;27.75;26.75;;;;;;;;5083460;27;51366;-58
2022/04/20 09:00:24;;;;;;;;;28.50;27.00;;;;;;;;5083315;27;51624;-59
2022/04/20 09:02:52;;;;;;;;;24.50;24.50;;;;;;;;5083416;27;51984;-59
2022/04/20 09:05:17;;;;;;;;;29.25;27.00;;;;;;;;5083722;27;52550;-59
2022/04/20 09:07:43;;;;;;;;;29.00;27.50;;;;;;;;5084164;27;51813;-59
2022/04/20 09:10:08;;;;;;;;;24.00;23.00;;;;;;;;5082563;27;51939;-59
2022/04/20 09:12:39;;;;;;;;;23.75;23.25;;;;;;;;5069959;27;53318;-59
2022/04/20 09:15:04;;;;;;;;;24.25;22.75;;;;;;;;5084207;27;52674;-60
2022/04/20 09:17:32;;;;;;;;;28.00;26.50;;;;;;;;5067966;27;51297;-58
2022/04/20 09:19:58;;;;;;;;;26.50;25.00;;;;;;;;5083336;27;52860;-59
2022/04/20 09:22:27;;;;;;;;;22.75;22.25;;;;;;;;5082651;27;51300;-58
2022/04/20 09:25:06;;;;;;;;;22.75;21.25;;;;;;;;5082785;27;53695;-59
2022/04/20 09:27:35;;;;;;;;;21.25;20.25;;;;;;;;5070629;27;51233;-58
2022/04/20 09:30:02;;;;;;;;;19.75;19.00;;;;;;;;5082707;27;53998;-60
2022/04/20 09:32:34;;;;;;;;;22.75;22.75;;;;;;;;5082668;27;51424;-60
2022/04/20 09:35:00;;;;;;;;;24.50;22.50;;;;;;;;5086111;27;51513;-58
2022/04/20 09:37:26;;;;;;;;;27.00;25.67;;;;;;;;5087380;27;53006;-58
2022/04/20 09:39:51;;;;;;;;;23.00;21.25;;;;;;;;5072298;27;53114;-59
2022/04/20 09:42:18;;;;;;;;;21.00;20.25;;;;;;;;5084865;27;51335;-59
2022/04/20 09:44:57;;;;;;;;;25.00;23.25;;;;;;;;5085932;27;52491;-58
2022/04/20 09:50:07;;;;;;;;;22.25;21.25;;;;;;;;5086196;27;51540;-59
2022/04/20 09:52:35;;;;;;;;;24.25;23.00;;;;;;;;5086394;27;54642;-58
2022/04/20 09:55:01;;;;;;;;;24.25;24.25;;;;;;;;5085994;27;51375;-60
2022/04/20 09:57:26;;;;;;;;;24.50;22.50;;;;;;;;5069659;27;51464;-58
2022/04/20 09:59:58;;;;;;;;;23.50;23.00;;;;;;;;5086428;27;52006;-59
2022/04/20 10:02:23;;;;;;;;;16.67;15.67;;;;;;;;5085389;27;51278;-59
2022/04/20 10:04:49;;;;;;;;;19.33;18.67;;;;;;;;5072002;27;53479;-59
2022/04/20 10:07:15;;;;;;;;;19.50;18.75;;;;;;;;5085659;27;52827;-58
2022/04/20 10:09:40;;;;;;;;;20.33;20.33;;;;;;;;5085249;27;51895;-59
2022/04/20 10:12:06;;;;;;;;;18.67;18.00;;;;;;;;5085850;27;51193;-59
2022/04/20 10:17:20;;;;;;;;;20.00;18.33;;;;;;;;5086107;27;51538;-59
2022/04/20 10:19:47;;;;;;;;;27.00;25.50;;;;;;;;5084868;27;51918;-58
2022/04/20 10:22:12;;;;;;;;;30.25;29.00;;;;;;;;5085471;27;51281;-58
2022/04/20 10:24:38;;;;;;;;;23.00;22.67;;;;;;;;5084777;27;51375;-62
2022/04/20 10:27:08;;;;;;;;;20.00;19.67;;;;;;;;5086220;27;53602;-60
2022/04/20 10:29:42;;;;;;;;;17.75;16.75;;;;;;;;5082312;27;53312;-60
2022/04/20 10:32:07;;;;;;;;;19.33;18.67;;;;;;;;5084728;27;53639;-59
2022/04/20 10:34:33;;;;;;;;;17.33;17.00;;;;;;;;5085431;27;51924;-59
2022/04/20 10:37:03;;;;;;;;;18.67;17.67;;;;;;;;5085964;27;51218;-59
2022/04/20 10:39:33;;;;;;;;;15.33;15.33;;;;;;;;5085240;27;52817;-60
2022/04/20 10:42:11;;;;;;;;;18.00;16.33;;;;;;;;5068679;27;51315;-59
2022/04/20 10:44:55;;;;;;;;;14.00;14.00;;;;;;;;5086115;27;53849;-59
2022/04/20 10:47:30;;;;;;;;;9.33;9.33;;;;;;;;5085520;27;51244;-58
2022/04/20 10:50:13;;;;;;;;;15.00;15.00;;;;;;;;5085533;27;52969;-59
2022/04/20 10:52:39;;;;;;;;;12.67;12.67;;;;;;;;5085380;27;51237;-59
2022/04/20 10:55:06;;;;;;;;;14.33;13.00;;;;;;;;5084797;27;53426;-59
2022/04/20 10:57:35;;;;;;;;;13.67;13.00;;;;;;;;5085753;27;51610;-60
2022/04/20 11:00:21;;;;;;;;;17.67;17.33;;;;;;;;5085708;27;51913;-59
2022/04/20 11:02:49;;;;;;;;;11.67;11.67;;;;;;;;5084988;27;51232;-60
2022/04/20 11:05:15;;;;;;;;;18.33;18.00;;;;;;;;5084534;27;52983;-59
2022/04/20 11:07:59;;;;;;;;;14.67;13.67;;;;;;;;5085113;27;52505;-59
2022/04/20 11:10:24;;;;;;;;;12.33;12.33;;;;;;;;5084141;27;52799;-58
2022/04/20 11:18:40;;;;;;;;;12.33;12.00;;;;;;;;5085101;27;51353;-59
2022/04/20 11:21:06;;;;;;;;;11.00;10.67;;;;;;;;5084995;27;52937;-63
2022/04/20 11:23:50;;;;;;;;;8.00;8.00;;;;;;;;5069868;27;51922;-58
2022/04/20 11:26:24;;;;;;;;;7.00;7.00;;;;;;;;5082139;27;51384;-58
2022/04/20 11:28:50;;;;;;;;;10.00;9.67;;;;;;;;5085149;27;51437;-59
2022/04/20 11:31:16;;;;;;;;;8.67;8.00;;;;;;;;5069883;27;55067;-59
2022/04/20 11:33:41;;;;;;;;;9.33;9.33;;;;;;;;5084876;27;51175;-58
2022/04/20 11:36:06;;;;;;;;;8.00;8.00;;;;;;;;5084327;27;53242;-60
2022/04/20 11:38:40;;;;;;;;;7.33;7.33;;;;;;;;5085576;27;51678;-59
2022/04/20 11:41:05;;;;;;;;;8.00;7.00;;;;;;;;5084281;27;55528;-60
2022/04/20 11:43:31;;;;;;;;;6.00;6.00;;;;;;;;5084703;27;51852;-59
2022/04/20 11:45:56;;;;;;;;;8.67;8.67;;;;;;;;5084194;27;51386;-58
2022/04/20 11:48:21;;;;;;;;;6.00;5.67;;;;;;;;5085950;27;51491;-61
2022/04/20 11:50:56;;;;;;;;;5.67;5.00;;;;;;;;5061342;27;53900;-58
2022/04/20 11:53:30;;;;;;;;;6.33;5.00;;;;;;;;5063052;27;51338;-59
2022/04/20 11:55:56;;;;;;;;;4.00;4.00;;;;;;;;5063648;27;51210;-59
2022/04/20 11:58:21;;;;;;;;;2.67;2.67;;;;;;;;5068471;27;51882;-58
2022/04/20 12:00:46;;;;;;;;;4.00;4.00;;;;;;;;5063965;27;51656;-59
2022/04/20 12:03:12;;;;;;;;;4.00;4.00;;;;;;;;5063400;27;51212;-58
2022/04/20 12:05:37;;;;;;;;;4.00;4.00;;;;;;;;5064347;27;51216;-58
2022/04/20 12:08:02;;;;;;;;;3.67;3.00;;;;;;;;5062924;27;51366;-59
2022/04/20 12:10:30;;;;;;;;;4.67;4.67;;;;;;;;5066865;27;52233;-59
2022/04/20 12:12:56;;;;;;;;;7.00;5.33;;;;;;;;5063590;27;52588;-59
2022/04/20 12:15:21;;;;;;;;;4.67;4.00;;;;;;;;5063564;27;51431;-60
2022/04/20 12:17:47;;;;;;;;;6.00;3.33;;;;;;;;5064092;27;51297;-59
2022/04/20 12:20:12;;;;;;;;;3.67;3.67;;;;;;;;5063123;27;51336;-59
2022/04/20 12:22:38;;;;;;;;;4.00;4.00;;;;;;;;5063314;27;51320;-59
2022/04/20 12:25:07;;;;;;;;;6.00;5.33;;;;;;;;5062793;27;51177;-60
2022/04/20 12:27:48;;;;;;;;;5.00;5.00;;;;;;;;5065767;27;51514;-60
2022/04/20 12:30:14;;;;;;;;;4.33;4.33;;;;;;;;5063713;27;51354;-60
2022/04/20 12:32:41;;;;;;;;;4.00;4.00;;;;;;;;5062855;27;53037;-60
2022/04/20 12:35:06;;;;;;;;;5.33;5.33;;;;;;;;5063256;27;51533;-59
2022/04/20 12:37:33;;;;;;;;;4.00;3.67;;;;;;;;5063358;27;54856;-60
2022/04/20 12:40:18;;;;;;;;;1.67;1.33;;;;;;;;5061674;27;53198;-58
2022/04/20 12:42:59;;;;;;;;;2.00;2.00;;;;;;;;5062509;27;51238;-58
2022/04/20 12:45:25;;;;;;;;;3.33;3.33;;;;;;;;5062347;27;51554;-59
2022/04/20 12:47:50;;;;;;;;;5.00;5.00;;;;;;;;5062546;27;52459;-59
2022/04/20 12:50:16;;;;;;;;;4.00;4.00;;;;;;;;5076644;27;53465;-59
2022/04/20 12:52:49;;;;;;;;;3.67;3.67;;;;;;;;5082935;27;52104;-60
2022/04/20 12:55:14;;;;;;;;;3.00;3.00;;;;;;;;5082616;27;51349;-60
2022/04/20 13:03:20;;;;;;;;;5.00;3.67;;;;;;;;5082413;27;51299;-59
2022/04/20 13:05:45;;;;;;;;;3.33;2.00;;;;;;;;5083197;27;51233;-59
2022/04/20 13:08:11;;;;;;;;;3.67;3.67;;;;;;;;5068514;27;53660;-60
2022/04/20 13:10:37;;;;;;;;;4.00;4.00;;;;;;;;5083637;27;51569;-58
2022/04/20 13:13:03;;;;;;;;;2.33;2.33;;;;;;;;5069224;27;51302;-61
2022/04/20 13:15:29;;;;;;;;;4.00;4.00;;;;;;;;5082377;27;51184;-59
2022/04/20 13:17:55;;;;;;;;;3.00;3.00;;;;;;;;5083074;27;51402;-59
2022/04/20 13:20:23;;;;;;;;;3.00;2.67;;;;;;;;5081956;27;51873;-59
2022/04/20 13:22:48;;;;;;;;;4.00;4.00;;;;;;;;5082811;27;52713;-60
2022/04/20 13:27:57;;;;;;;;;3.00;3.00;;;;;;;;5082452;27;51470;-59
2022/04/20 13:30:26;;;;;;;;;5.33;5.00;;;;;;;;5082323;27;51807;-59
2022/04/20 13:32:52;;;;;;;;;4.33;3.67;;;;;;;;5083093;27;53148;-59
2022/04/20 13:35:18;;;;;;;;;2.00;2.00;;;;;;;;5082256;27;51399;-60
2022/04/20 13:37:43;;;;;;;;;3.67;3.00;;;;;;;;5083547;27;51134;-60
2022/04/20 13:40:09;;;;;;;;;3.00;3.00;;;;;;;;5082035;27;51823;-60
2022/04/20 13:42:34;;;;;;;;;2.67;2.67;;;;;;;;5082488;27;51530;-60
2022/04/20 13:45:00;;;;;;;;;3.67;3.00;;;;;;;;5083123;27;51879;-59
2022/04/20 13:47:25;;;;;;;;;4.00;4.00;;;;;;;;5082950;27;51472;-59
2022/04/20 13:49:50;;;;;;;;;3.00;3.00;;;;;;;;5082150;27;52288;-59
2022/04/20 13:52:16;;;;;;;;;3.00;3.00;;;;;;;;5082351;27;51375;-59
2022/04/20 13:54:41;;;;;;;;;5.00;4.00;;;;;;;;5083455;27;51216;-59
2022/04/20 13:57:06;;;;;;;;;1.67;1.00;;;;;;;;5088830;27;51141;-58
2022/04/20 13:59:31;;;;;;;;;3.00;3.00;;;;;;;;5072599;27;52896;-59
2022/04/20 14:01:57;;;;;;;;;2.33;2.33;;;;;;;;5088004;27;51148;-60
2022/04/20 14:04:22;;;;;;;;;3.00;3.00;;;;;;;;5087897;27;52488;-59
2022/04/20 14:06:50;;;;;;;;;2.00;2.00;;;;;;;;5087562;27;51402;-59
2022/04/20 14:09:15;;;;;;;;;3.00;3.00;;;;;;;;5087848;27;51237;-59
2022/04/20 14:11:40;;;;;;;;;3.00;2.00;;;;;;;;5087376;27;52478;-58
2022/04/20 14:14:06;;;;;;;;;3.67;3.33;;;;;;;;5087773;27;52816;-59
2022/04/20 14:16:31;;;;;;;;;2.00;2.00;;;;;;;;5087850;27;51157;-59
2022/04/20 14:18:57;;;;;;;;;2.00;2.00;;;;;;;;5087922;27;52791;-60
2022/04/20 14:21:22;;;;;;;;;2.67;2.67;;;;;;;;5089374;27;53577;-59
2022/04/20 14:23:48;;;;;;;;;3.00;3.00;;;;;;;;5091147;27;51319;-59
2022/04/20 14:34:25;;;;;;;;;3.00;3.00;;;;;;;;5071384;27;51257;-61
2022/04/20 14:36:50;;;;;;;;;3.00;3.00;;;;;;;;5085434;27;51233;-59
2022/04/20 14:39:15;;;;;;;;;5.67;4.33;;;;;;;;5069819;27;53267;-60
2022/04/20 14:41:40;;;;;;;;;3.00;3.00;;;;;;;;5085499;27;51461;-60
2022/04/20 14:44:06;;;;;;;;;3.00;2.33;;;;;;;;5069520;27;52490;-60
2022/04/20 14:46:31;;;;;;;;;1.00;1.00;;;;;;;;5072551;27;53624;-59
2022/04/20 14:48:57;;;;;;;;;4.00;4.00;;;;;;;;5084612;27;52678;-62
2022/04/20 14:51:22;;;;;;;;;2.00;2.00;;;;;;;;5085309;27;51485;-59
2022/04/20 14:53:49;;;;;;;;;3.00;2.00;;;;;;;;5084195;27;54678;-59
2022/04/20 14:56:14;;;;;;;;;2.00;2.00;;;;;;;;5085348;27;51254;-59
2022/04/20 14:58:39;;;;;;;;;2.00;2.00;;;;;;;;5084602;27;53084;-60
2022/04/20 15:01:05;;;;;;;;;1.00;0.33;;;;;;;;5067969;27;51254;-60
2022/04/20 15:03:30;;;;;;;;;2.33;2.33;;;;;;;;5084503;27;51129;-59
2022/04/20 15:05:55;;;;;;;;;3.00;3.00;;;;;;;;5084669;27;53118;-62